New Bern, NC (28561)

9:24 AM EST on November 26, 2014 (GMT -0500)
New Bern, Trent Woods NC | Change Station
CLOSE
Current Station
Personal Weather Station
Location: New Bern, NC
Elevation: 26 ft
Nearby Weather Stations

Elev 26 ft 35.10 °N, 77.09 °W | Updated 5 seconds ago

Heavy Rain
Heavy Rain Mist
57.9 °F
Feels Like 57.9 °F
N
11.0
Wind Variable Wind from NW
Gusts 22.0 mph

Today
High -- | Low -- °F
--% Chance of Precip.
Yesterday
High -- | Low -- °F
Precip. -- in
6:53 AM 4:57 PM
Waxing Crescent, 20% visible
Pressure 29.72 in
Visibility 0.8 miles
Clouds Mostly Cloudy 400 ft
Mostly Cloudy 1600 ft
Overcast 2400 ft
Dew Point 58 °F
Humidity 100%
Rainfall 0.33 in
Snow Depth Not available.
UV 0.0 out of 12
Pollen .30 out of 12
Air Quality Not available.
Flu Activity Not available.
SPECI KEWN 261418Z 34004KT 3/4SM +RA BR BKN004 BKN016 OVC024 19/17 A2972 RMK AO2 P0025 T01890172

More Conditions Fewer Conditions

Pressure 29.72 in
Visibility 0.8 miles
Clouds Mostly Cloudy 400 ft
Mostly Cloudy 1600 ft
Overcast 2400 ft
Dew Point 58 °F
Humidity 100%
Rainfall 0.33 in
Snow Depth Not available.
UV 0.0 out of 12
Pollen .30 out of 12
Air Quality Not available.
Flu Activity Not available.
SPECI KEWN 261418Z 34004KT 3/4SM +RA BR BKN004 BKN016 OVC024 19/17 A2972 RMK AO2 P0025 T01890172

More Conditions Fewer Conditions

10-Day Weather Forecast

Almanac

Astronomy

Nov. 26, 2014 Rise Set
Actual Time
Civil Twilight
Nautical Twilight
Astronomical Twilight
Moon
Length of Visible Light
Length of Day
Tomorrow will be .
, % of the Moon is Illuminated

Today's Extremes

State Highs State Lows

Community

WunderPhotos

Upload Photos

1,773,752 photos uploaded!

WunderBlogs® & News

Nearby

Air Quality

  Air Quality AQ Index Pollutant
Not available.

Snow Depth

Station Depth Elevation

Earthquake Activity

City Distance Mag. Time & Date
Minimum magnitude displayed is 2.5.

Coastal Water Temperatures

Place Temperature

Nearby Weather Stations